Time;durP1;ratioP1;P1;durP2;ratioP2;P2;SDS_P1;SDS_P2;PMS_P1;PMS_P2;Temp;Humidity;BMP_temperature;BMP_pressure;BME280_temperature;BME280_humidity;BME280_pressure;Samples;Min_cycle;Max_cycle;Signal;HPM_P1;HPM_P2
2021/10/04 00:02:23;;;;;;;2.75;1.67;;;13.10;86.00;;;;;;5062681;28;20110;-76
2021/10/04 00:04:48;;;;;;;3.85;1.55;;;13.10;86.00;;;;;;5062843;28;20025;-76
2021/10/04 00:07:14;;;;;;;3.67;1.50;;;13.10;85.90;;;;;;5068267;28;20104;-76
2021/10/04 00:09:40;;;;;;;2.13;1.20;;;13.10;86.00;;;;;;5061247;28;20024;-77
2021/10/04 00:12:07;;;;;;;4.32;1.75;;;13.10;86.10;;;;;;5069360;28;20363;-76
2021/10/04 00:14:32;;;;;;;6.13;1.58;;;13.10;86.00;;;;;;5069259;28;20024;-77
2021/10/04 00:16:58;;;;;;;4.70;1.48;;;13.00;85.80;;;;;;5060428;28;20048;-77
2021/10/04 00:19:24;;;;;;;7.03;1.45;;;13.00;85.90;;;;;;5068826;28;20148;-76
2021/10/04 00:21:50;;;;;;;5.68;1.58;;;13.00;86.00;;;;;;5050979;28;20040;-76
2021/10/04 00:24:16;;;;;;;4.07;1.50;;;13.00;86.10;;;;;;5061432;28;20494;-77
2021/10/04 00:26:42;;;;;;;5.47;1.60;;;13.00;86.20;;;;;;5060649;28;20036;-77
2021/10/04 00:29:09;;;;;;;3.17;1.55;;;13.00;86.30;;;;;;5068064;28;20024;-77
2021/10/04 00:31:34;;;;;;;4.68;1.90;;;13.00;86.20;;;;;;5062410;28;20024;-77
2021/10/04 00:34:01;;;;;;;5.80;1.90;;;13.00;86.30;;;;;;5057468;28;20044;-77
2021/10/04 00:36:27;;;;;;;5.63;1.70;;;13.00;86.40;;;;;;5084485;28;20027;-76
2021/10/04 00:38:53;;;;;;;3.42;1.65;;;13.00;86.40;;;;;;5078223;28;20414;-76
2021/10/04 00:41:19;;;;;;;5.80;1.95;;;13.00;86.30;;;;;;5053277;28;20031;-76
2021/10/04 00:43:45;;;;;;;3.25;2.03;;;13.00;86.20;;;;;;5070542;28;20047;-76
2021/10/04 00:46:10;;;;;;;5.05;1.55;;;13.00;86.30;;;;;;5050442;28;20474;-76
2021/10/04 00:48:36;;;;;;;5.72;1.90;;;13.00;86.60;;;;;;5062767;28;20035;-76
2021/10/04 00:51:02;;;;;;;4.65;1.80;;;13.00;86.60;;;;;;5070009;28;20028;-76
2021/10/04 00:53:28;;;;;;;7.85;2.20;;;12.90;86.30;;;;;;5054071;28;20171;-76
2021/10/04 00:55:53;;;;;;;3.97;1.50;;;12.90;86.50;;;;;;5069415;28;20073;-76
2021/10/04 00:58:19;;;;;;;3.75;2.00;;;12.90;86.60;;;;;;5064290;28;20036;-76
2021/10/04 01:00:45;;;;;;;9.48;1.95;;;12.90;86.50;;;;;;5084904;28;20429;-76
2021/10/04 01:03:10;;;;;;;6.15;1.77;;;12.90;86.50;;;;;;5055271;28;20502;-77
2021/10/04 01:05:36;;;;;;;2.95;1.70;;;12.90;86.70;;;;;;5081409;28;20372;-76
2021/10/04 01:08:02;;;;;;;6.50;1.90;;;12.90;86.70;;;;;;5052137;28;20039;-76
2021/10/04 01:10:28;;;;;;;6.43;2.00;;;12.90;86.80;;;;;;5064287;28;20059;-76
2021/10/04 01:12:55;;;;;;;3.25;1.48;;;12.90;86.90;;;;;;5064614;28;20036;-76
2021/10/04 01:15:22;;;;;;;4.50;1.80;;;12.90;87.00;;;;;;5071665;28;20028;-77
2021/10/04 01:17:49;;;;;;;5.97;1.67;;;12.90;86.90;;;;;;5080999;28;20392;-78
2021/10/04 01:20:19;;;;;;;2.05;1.50;;;12.90;87.00;;;;;;5079676;28;20032;-77
2021/10/04 01:22:46;;;;;;;2.47;1.52;;;12.90;87.10;;;;;;5088815;28;20024;-76
2021/10/04 01:25:13;;;;;;;6.72;1.80;;;12.90;87.00;;;;;;5071340;28;20047;-76
2021/10/04 01:27:40;;;;;;;4.07;1.50;;;12.90;86.80;;;;;;5087222;28;20040;-77
2021/10/04 01:30:07;;;;;;;5.60;1.50;;;12.90;86.80;;;;;;5068358;28;20093;-77
2021/10/04 01:32:33;;;;;;;6.40;1.40;;;12.80;87.10;;;;;;5079184;28;20016;-77
2021/10/04 01:34:58;;;;;;;4.80;1.40;;;12.90;87.10;;;;;;5083497;28;20032;-77
2021/10/04 01:37:25;;;;;;;4.88;2.00;;;12.90;87.10;;;;;;5079615;28;20774;-77
2021/10/04 01:39:51;;;;;;;2.85;1.73;;;12.90;87.10;;;;;;5086295;28;20044;-77
2021/10/04 01:42:18;;;;;;;2.50;1.40;;;12.90;87.00;;;;;;5065793;28;20028;-77
2021/10/04 01:44:44;;;;;;;3.30;1.40;;;13.00;87.00;;;;;;5070246;28;20562;-77
2021/10/04 01:47:09;;;;;;;4.18;1.70;;;12.90;86.90;;;;;;5068427;28;20029;-77
2021/10/04 01:49:35;;;;;;;7.13;1.40;;;12.90;86.80;;;;;;5068246;28;20073;-77
2021/10/04 01:52:01;;;;;;;2.92;1.30;;;12.90;86.80;;;;;;5068027;28;20032;-77
2021/10/04 01:54:26;;;;;;;4.47;1.92;;;12.90;86.70;;;;;;5086203;28;20028;-77
2021/10/04 01:56:52;;;;;;;4.75;1.42;;;12.90;86.60;;;;;;5087221;28;20028;-77
2021/10/04 01:59:18;;;;;;;3.50;1.20;;;12.90;86.50;;;;;;5068482;28;20036;-77
2021/10/04 02:01:44;;;;;;;3.60;1.30;;;12.90;86.40;;;;;;5079676;28;20040;-76
2021/10/04 02:04:09;;;;;;;4.10;1.27;;;12.90;86.50;;;;;;5063066;28;20024;-76
2021/10/04 02:06:35;;;;;;;4.00;1.15;;;12.90;86.70;;;;;;5078831;28;20025;-76
2021/10/04 02:09:01;;;;;;;5.22;1.20;;;12.90;86.50;;;;;;5069754;28;20502;-76
2021/10/04 02:11:27;;;;;;;2.08;1.10;;;12.90;86.60;;;;;;5066227;28;20020;-77
2021/10/04 02:13:53;;;;;;;3.42;1.25;;;12.90;86.50;;;;;;5089712;28;20112;-77
2021/10/04 02:16:18;;;;;;;2.72;1.10;;;12.90;86.50;;;;;;5096707;28;20039;-77
2021/10/04 02:18:44;;;;;;;2.25;1.50;;;12.90;86.50;;;;;;5070459;28;20085;-77
2021/10/04 02:21:10;;;;;;;4.10;1.38;;;12.90;86.40;;;;;;5071863;28;20423;-77
2021/10/04 02:23:36;;;;;;;4.22;1.55;;;12.90;86.30;;;;;;5087954;28;20024;-77
2021/10/04 02:26:02;;;;;;;1.90;0.90;;;12.90;86.10;;;;;;5073753;28;20056;-76
2021/10/04 02:28:28;;;;;;;2.28;1.30;;;12.90;86.10;;;;;;5090864;28;20029;-77
2021/10/04 02:30:56;;;;;;;1.70;1.20;;;12.90;86.00;;;;;;5071042;28;20392;-77
2021/10/04 02:33:21;;;;;;;2.17;1.10;;;12.80;86.10;;;;;;5068773;28;20111;-77
2021/10/04 02:35:47;;;;;;;2.55;1.40;;;12.90;86.10;;;;;;5083514;28;20112;-77
2021/10/04 02:38:13;;;;;;;3.15;1.33;;;12.80;86.10;;;;;;5072943;28;20065;-76
2021/10/04 02:40:39;;;;;;;3.30;1.10;;;12.80;86.00;;;;;;5069103;28;20060;-77
2021/10/04 02:43:06;;;;;;;3.47;1.20;;;12.80;86.00;;;;;;5091582;28;20543;-77
2021/10/04 02:45:32;;;;;;;4.07;1.10;;;12.80;86.10;;;;;;5089624;28;20088;-77
2021/10/04 02:48:00;;;;;;;2.55;1.13;;;12.80;86.30;;;;;;5088249;28;20056;-78
2021/10/04 02:50:27;;;;;;;5.40;1.40;;;12.80;86.30;;;;;;5081465;28;20036;-77
2021/10/04 02:52:53;;;;;;;4.63;1.50;;;12.80;86.30;;;;;;5089314;28;20032;-77
2021/10/04 02:55:19;;;;;;;4.15;1.30;;;12.80;86.40;;;;;;5051749;28;20074;-76
2021/10/04 02:57:45;;;;;;;3.30;1.48;;;12.80;86.30;;;;;;5065876;28;20056;-76
2021/10/04 03:00:15;;;;;;;4.15;1.27;;;12.80;86.10;;;;;;5087740;28;20074;-76
2021/10/04 03:02:41;;;;;;;3.83;1.63;;;12.80;85.90;;;;;;5068994;28;20020;-77
2021/10/04 03:05:07;;;;;;;2.95;1.30;;;12.80;86.00;;;;;;5087921;28;20126;-77
2021/10/04 03:07:33;;;;;;;5.40;1.30;;;12.80;86.00;;;;;;5053916;28;20521;-77
2021/10/04 03:09:58;;;;;;;4.40;1.42;;;12.80;85.90;;;;;;5088248;28;20063;-77
2021/10/04 03:12:24;;;;;;;2.33;1.00;;;12.80;86.40;;;;;;5073163;28;20043;-77
2021/10/04 03:14:50;;;;;;;3.08;1.02;;;12.80;85.90;;;;;;5070505;28;20028;-76
2021/10/04 03:17:16;;;;;;;4.20;1.45;;;12.80;86.10;;;;;;5073472;28;20024;-76
2021/10/04 03:19:42;;;;;;;4.30;1.23;;;12.80;86.10;;;;;;5070363;28;20051;-76
2021/10/04 03:22:08;;;;;;;3.08;1.17;;;12.80;86.10;;;;;;5065126;28;20029;-76
2021/10/04 03:24:33;;;;;;;2.92;1.20;;;12.80;85.80;;;;;;5073615;28;20402;-76
2021/10/04 03:27:00;;;;;;;4.22;1.48;;;12.80;86.00;;;;;;5072866;28;20032;-76
2021/10/04 03:29:26;;;;;;;4.43;1.27;;;12.80;85.70;;;;;;5072093;28;20069;-77
2021/10/04 03:31:53;;;;;;;4.00;1.35;;;12.80;85.80;;;;;;5051018;28;20479;-76
2021/10/04 03:34:18;;;;;;;3.42;1.25;;;12.80;85.70;;;;;;5078907;28;20119;-76
2021/10/04 03:36:44;;;;;;;3.78;1.35;;;12.80;85.90;;;;;;5054994;28;20060;-76
2021/10/04 03:39:10;;;;;;;4.15;1.35;;;12.80;86.00;;;;;;5067000;28;20043;-77
2021/10/04 03:41:37;;;;;;;3.45;1.20;;;12.80;86.00;;;;;;5084418;28;20035;-77
2021/10/04 03:44:03;;;;;;;3.65;1.17;;;12.80;86.00;;;;;;5070339;28;20592;-77
2021/10/04 03:46:29;;;;;;;3.45;1.20;;;12.80;86.00;;;;;;5067446;28;20020;-77
2021/10/04 03:48:54;;;;;;;2.03;1.27;;;12.80;86.00;;;;;;5065574;28;20441;-76
2021/10/04 03:51:21;;;;;;;2.67;1.20;;;12.80;86.00;;;;;;5054278;28;20035;-77
2021/10/04 03:53:47;;;;;;;1.67;1.10;;;12.80;86.10;;;;;;5071581;28;20028;-77
2021/10/04 03:56:13;;;;;;;4.45;1.85;;;12.80;85.90;;;;;;5063642;28;20119;-77
2021/10/04 03:58:40;;;;;;;3.17;1.33;;;12.80;85.90;;;;;;5063557;28;20521;-76
2021/10/04 04:01:06;;;;;;;4.13;1.20;;;12.80;86.00;;;;;;5055002;28;20027;-76
2021/10/04 04:03:32;;;;;;;7.85;1.42;;;12.80;86.00;;;;;;5068677;28;20035;-77
2021/10/04 04:05:58;;;;;;;3.60;1.27;;;12.80;85.90;;;;;;5087575;28;20035;-77
2021/10/04 04:08:24;;;;;;;3.25;1.30;;;12.80;86.00;;;;;;5069296;28;20031;-77
2021/10/04 04:10:49;;;;;;;3.75;1.20;;;12.80;86.10;;;;;;5070440;28;20024;-77
2021/10/04 04:13:15;;;;;;;2.03;1.10;;;12.80;86.00;;;;;;5089904;28;20028;-77
2021/10/04 04:15:41;;;;;;;3.25;1.20;;;12.80;86.10;;;;;;5066558;28;20406;-77
2021/10/04 04:18:07;;;;;;;5.25;1.30;;;12.80;86.00;;;;;;5067144;28;20033;-77
2021/10/04 04:20:32;;;;;;;5.15;1.30;;;12.80;86.10;;;;;;5066105;28;20036;-77
2021/10/04 04:22:58;;;;;;;4.32;1.30;;;12.80;86.00;;;;;;5068593;28;20438;-77
2021/10/04 04:25:24;;;;;;;5.45;1.52;;;12.80;85.90;;;;;;5067428;28;20461;-76
2021/10/04 04:27:50;;;;;;;3.10;1.20;;;12.80;86.00;;;;;;5070591;28;20039;-77
2021/10/04 04:30:16;;;;;;;10.73;2.13;;;12.70;86.00;;;;;;5089562;28;20492;-76
2021/10/04 04:32:45;;;;;;;2.60;1.17;;;12.80;86.10;;;;;;5070240;28;20122;-75
2021/10/04 04:35:11;;;;;;;3.33;1.00;;;12.80;86.10;;;;;;5088427;28;20092;-77
2021/10/04 04:37:40;;;;;;;5.05;1.80;;;12.80;86.10;;;;;;5065208;28;20386;-77
2021/10/04 04:40:09;;;;;;;5.72;1.30;;;12.80;86.20;;;;;;5076657;28;20041;-76
2021/10/04 04:42:34;;;;;;;2.42;1.20;;;12.80;86.30;;;;;;5065638;28;20107;-77
2021/10/04 04:45:00;;;;;;;3.55;1.20;;;12.80;86.00;;;;;;5066542;28;20501;-77
2021/10/04 04:47:26;;;;;;;4.13;1.13;;;12.80;86.00;;;;;;5087254;28;20493;-77
2021/10/04 04:49:52;;;;;;;5.00;1.40;;;12.80;85.80;;;;;;5064009;28;20103;-77
2021/10/04 04:52:17;;;;;;;6.05;1.33;;;12.80;85.90;;;;;;5070056;28;20512;-77
2021/10/04 04:54:43;;;;;;;9.07;1.70;;;12.80;85.80;;;;;;5088725;28;20523;-77
2021/10/04 04:57:09;;;;;;;3.85;1.40;;;12.80;85.90;;;;;;5068097;28;20046;-76
2021/10/04 04:59:34;;;;;;;3.00;1.30;;;12.80;85.90;;;;;;5055649;28;20169;-77
2021/10/04 05:02:00;;;;;;;1.42;1.08;;;12.80;86.00;;;;;;5066721;28;20455;-76
2021/10/04 05:04:29;;;;;;;2.88;1.20;;;12.80;85.80;;;;;;5085919;28;20028;-77
2021/10/04 05:06:55;;;;;;;2.85;1.05;;;12.80;85.90;;;;;;5087076;28;20603;-77
2021/10/04 05:09:20;;;;;;;2.70;1.10;;;12.80;86.50;;;;;;5055679;28;20071;-76
2021/10/04 05:11:46;;;;;;;3.20;1.25;;;12.70;85.80;;;;;;5052267;28;20041;-77
2021/10/04 05:14:12;;;;;;;3.92;1.20;;;12.80;85.90;;;;;;5052269;28;20032;-77
2021/10/04 05:16:38;;;;;;;4.47;1.23;;;12.80;85.80;;;;;;5035828;28;20044;-77
2021/10/04 05:19:03;;;;;;;6.07;1.20;;;12.80;85.90;;;;;;5079965;28;20028;-77
2021/10/04 05:21:29;;;;;;;3.75;1.35;;;12.80;86.00;;;;;;5065366;28;20517;-77
2021/10/04 05:23:55;;;;;;;4.45;1.20;;;12.80;85.90;;;;;;5071766;28;20028;-76
2021/10/04 05:26:20;;;;;;;4.43;1.35;;;12.80;85.80;;;;;;5070316;28;20480;-76
2021/10/04 05:28:46;;;;;;;3.83;1.33;;;12.80;86.40;;;;;;5069880;28;20051;-77
2021/10/04 05:31:12;;;;;;;2.33;1.40;;;12.80;85.80;;;;;;5068573;28;20340;-77
2021/10/04 05:33:38;;;;;;;4.50;1.20;;;12.80;85.90;;;;;;5087305;28;20081;-76
2021/10/04 05:36:05;;;;;;;2.78;1.20;;;12.80;85.90;;;;;;5065945;28;20029;-76
2021/10/04 05:38:31;;;;;;;3.67;1.40;;;12.80;85.90;;;;;;5052613;28;20052;-77
2021/10/04 05:40:56;;;;;;;2.97;1.05;;;12.80;85.90;;;;;;5093025;28;20028;-77
2021/10/04 05:43:22;;;;;;;2.67;1.08;;;12.80;86.00;;;;;;5066419;28;20542;-76
2021/10/04 05:45:48;;;;;;;4.13;1.23;;;12.70;85.90;;;;;;5057594;28;20143;-76
2021/10/04 05:48:14;;;;;;;5.15;1.20;;;12.70;85.80;;;;;;5083277;28;20162;-77
2021/10/04 05:50:40;;;;;;;4.50;1.10;;;12.70;85.80;;;;;;5073129;28;20328;-77
2021/10/04 05:53:06;;;;;;;4.80;1.20;;;12.70;85.90;;;;;;5072208;28;20032;-76
2021/10/04 05:55:31;;;;;;;5.47;1.33;;;12.70;85.90;;;;;;5073299;28;20039;-77
2021/10/04 05:57:57;;;;;;;3.55;1.38;;;12.70;86.10;;;;;;5053791;28;20055;-76
2021/10/04 06:00:23;;;;;;;2.30;1.45;;;12.70;86.20;;;;;;5093093;28;20550;-76
2021/10/04 06:02:48;;;;;;;4.53;1.20;;;12.60;86.20;;;;;;5089311;28;20063;-76
2021/10/04 06:05:15;;;;;;;7.53;1.20;;;12.70;86.30;;;;;;5091447;28;20500;-77
2021/10/04 06:07:41;;;;;;;3.92;1.30;;;12.60;86.30;;;;;;5090705;28;20031;-77
2021/10/04 06:10:07;;;;;;;5.85;2.70;;;12.70;86.30;;;;;;5082591;28;20036;-77
2021/10/04 06:12:33;;;;;;;5.05;1.30;;;12.70;86.20;;;;;;5088818;28;20558;-77
2021/10/04 06:15:01;;;;;;;4.18;1.30;;;12.70;86.10;;;;;;5077284;28;20027;-77
2021/10/04 06:17:27;;;;;;;2.85;1.20;;;12.70;86.20;;;;;;5090052;28;20062;-77
2021/10/04 06:19:54;;;;;;;5.25;1.42;;;12.70;86.10;;;;;;5066912;28;20075;-77
2021/10/04 06:22:20;;;;;;;4.65;1.35;;;12.70;86.10;;;;;;5085157;28;20030;-77
2021/10/04 06:24:46;;;;;;;4.25;1.40;;;12.70;86.10;;;;;;5072213;28;20028;-78
2021/10/04 06:27:12;;;;;;;5.05;1.27;;;12.70;86.20;;;;;;5086860;28;20066;-78
2021/10/04 06:29:38;;;;;;;8.68;1.92;;;12.70;86.20;;;;;;5090972;28;20115;-77
2021/10/04 06:32:07;;;;;;;4.88;1.40;;;12.70;86.30;;;;;;5071182;28;20088;-77
2021/10/04 06:34:32;;;;;;;4.80;1.55;;;12.70;86.20;;;;;;5089098;28;20032;-78
2021/10/04 06:36:58;;;;;;;4.53;1.48;;;12.70;86.20;;;;;;5073313;28;20409;-77
2021/10/04 06:39:24;;;;;;;4.40;1.40;;;12.70;86.20;;;;;;5087385;28;20067;-77
2021/10/04 06:41:50;;;;;;;3.53;1.45;;;12.70;86.30;;;;;;5072234;28;20024;-77
2021/10/04 06:44:15;;;;;;;5.00;1.50;;;12.70;86.20;;;;;;5089152;28;20471;-77
2021/10/04 06:46:41;;;;;;;3.30;1.38;;;12.70;86.20;;;;;;5068909;28;20032;-77
2021/10/04 06:49:07;;;;;;;4.50;1.52;;;12.70;86.40;;;;;;5056151;28;20036;-77
2021/10/04 06:51:33;;;;;;;4.63;1.63;;;12.70;86.40;;;;;;5089794;28;20386;-76
2021/10/04 06:53:59;;;;;;;6.45;1.60;;;12.70;86.20;;;;;;5055908;28;20032;-77
2021/10/04 06:56:25;;;;;;;2.88;1.50;;;12.80;86.20;;;;;;5072301;28;20469;-77
2021/10/04 06:58:51;;;;;;;4.35;1.65;;;12.70;86.40;;;;;;5087092;28;20032;-77
2021/10/04 07:01:17;;;;;;;3.35;1.70;;;12.80;86.30;;;;;;5072938;28;20495;-77
2021/10/04 07:03:42;;;;;;;5.35;1.70;;;12.80;86.30;;;;;;5049018;28;20047;-77
2021/10/04 07:06:08;;;;;;;4.03;1.63;;;12.80;86.30;;;;;;5056992;28;20514;-77
2021/10/04 07:08:35;;;;;;;3.63;1.60;;;12.80;86.40;;;;;;5073451;28;20024;-77
2021/10/04 07:11:01;;;;;;;6.32;1.58;;;12.80;86.40;;;;;;5071193;28;20584;-77
2021/10/04 07:13:27;;;;;;;4.88;1.55;;;12.80;86.20;;;;;;5066948;28;20032;-77
2021/10/04 07:15:53;;;;;;;5.05;1.85;;;12.80;86.00;;;;;;5091424;28;20119;-77
2021/10/04 07:18:19;;;;;;;6.03;1.55;;;12.80;86.10;;;;;;5066446;28;20378;-77
2021/10/04 07:20:44;;;;;;;3.95;1.60;;;12.90;86.20;;;;;;5088195;28;20024;-77
2021/10/04 07:23:12;;;;;;;5.25;1.55;;;12.90;86.30;;;;;;5085164;28;20047;-77
2021/10/04 07:25:38;;;;;;;5.75;1.60;;;12.90;86.20;;;;;;5090236;28;20036;-77
2021/10/04 07:28:04;;;;;;;6.40;1.88;;;12.90;86.10;;;;;;5090537;28;20028;-77
2021/10/04 07:30:33;;;;;;;4.25;2.22;;;12.90;86.10;;;;;;5071398;28;20051;-77
2021/10/04 07:33:00;;;;;;;4.15;1.40;;;12.90;86.10;;;;;;5093070;28;20035;-78
2021/10/04 07:35:26;;;;;;;9.35;1.73;;;12.90;86.30;;;;;;5060606;28;20044;-77
2021/10/04 07:37:52;;;;;;;4.50;1.40;;;12.90;86.30;;;;;;5089948;28;20024;-77
2021/10/04 07:40:19;;;;;;;4.45;1.30;;;12.90;86.20;;;;;;5090140;28;20056;-78
2021/10/04 07:42:44;;;;;;;4.60;1.73;;;13.00;86.30;;;;;;5090588;28;20059;-77
2021/10/04 07:45:11;;;;;;;4.68;1.70;;;13.00;86.60;;;;;;5071876;28;20490;-77
2021/10/04 07:47:37;;;;;;;5.85;2.00;;;13.00;86.20;;;;;;5068832;28;20098;-77
2021/10/04 07:50:04;;;;;;;6.93;1.52;;;13.00;86.30;;;;;;5075180;28;20481;-78
2021/10/04 07:52:30;;;;;;;4.20;1.50;;;13.00;85.70;;;;;;5084704;28;20301;-78
2021/10/04 07:54:56;;;;;;;4.55;1.17;;;13.10;85.50;;;;;;5068766;28;20024;-77
2021/10/04 07:57:22;;;;;;;3.75;1.45;;;13.10;85.20;;;;;;5070060;28;20538;-78
2021/10/04 07:59:47;;;;;;;9.02;1.45;;;13.10;85.20;;;;;;5053114;28;20025;-77
2021/10/04 08:02:13;;;;;;;7.45;2.47;;;13.10;85.40;;;;;;5091962;28;20040;-78
2021/10/04 08:04:39;;;;;;;6.75;1.65;;;13.00;85.30;;;;;;5055090;28;20149;-77
2021/10/04 08:07:06;;;;;;;7.10;1.67;;;13.00;85.30;;;;;;5070704;28;20038;-78
2021/10/04 08:09:32;;;;;;;4.57;1.50;;;13.00;85.30;;;;;;5087345;28;20032;-79
2021/10/04 08:11:58;;;;;;;5.45;1.40;;;13.00;85.50;;;;;;5087931;28;20115;-79
2021/10/04 08:14:24;;;;;;;6.53;1.58;;;13.10;85.50;;;;;;5087634;28;20099;-78
2021/10/04 08:16:50;;;;;;;6.40;1.77;;;13.10;85.60;;;;;;5069189;28;20181;-78
2021/10/04 08:19:16;;;;;;;6.47;1.52;;;13.20;85.30;;;;;;5071654;28;20115;-80
2021/10/04 08:21:42;;;;;;;8.52;1.65;;;13.30;85.00;;;;;;5083122;28;20379;-79
2021/10/04 08:24:08;;;;;;;2.95;1.30;;;13.30;84.50;;;;;;5065653;28;20028;-80
2021/10/04 08:26:34;;;;;;;3.83;1.30;;;13.30;84.60;;;;;;5080043;28;20086;-80
2021/10/04 08:29:00;;;;;;;6.95;1.67;;;13.40;84.60;;;;;;5083096;28;20099;-80
2021/10/04 08:31:34;;;;;;;4.10;1.75;;;13.50;83.90;;;;;;5055105;28;20062;-80
2021/10/04 08:34:02;;;;;;;7.05;1.70;;;13.50;83.90;;;;;;5065612;28;20826;-80
2021/10/04 08:36:29;;;;;;;5.18;1.55;;;13.60;84.10;;;;;;5056554;28;20505;-80
2021/10/04 08:38:56;;;;;;;5.70;1.40;;;13.70;84.20;;;;;;5085344;28;20032;-82
2021/10/04 08:41:22;;;;;;;4.15;1.42;;;13.80;83.80;;;;;;5084312;28;20174;-80
2021/10/04 08:43:50;;;;;;;9.18;1.63;;;13.90;83.60;;;;;;5078626;28;20033;-80
2021/10/04 08:46:17;;;;;;;5.70;1.48;;;13.90;83.30;;;;;;5068762;28;20028;-80
2021/10/04 08:48:44;;;;;;;6.00;1.55;;;14.00;82.80;;;;;;5068534;28;20039;-80
2021/10/04 08:51:10;;;;;;;4.70;1.40;;;14.10;82.10;;;;;;5052640;28;20082;-80
2021/10/04 08:53:37;;;;;;;3.83;1.60;;;14.10;82.30;;;;;;5048631;28;20033;-80
2021/10/04 08:56:03;;;;;;;5.30;1.40;;;14.20;82.10;;;;;;5084324;28;20108;-80
2021/10/04 08:58:32;;;;;;;2.88;1.42;;;14.30;81.50;;;;;;5084834;28;20494;-78
2021/10/04 09:00:59;;;;;;;3.40;1.30;;;14.40;81.90;;;;;;5066827;28;20041;-80
2021/10/04 09:03:25;;;;;;;3.70;1.10;;;14.50;81.10;;;;;;5068875;28;20028;-81
2021/10/04 09:05:59;;;;;;;3.75;1.50;;;14.50;80.80;;;;;;5067274;28;20035;-77
2021/10/04 09:08:25;;;;;;;5.85;1.58;;;14.60;80.80;;;;;;5067858;28;20032;-77
2021/10/04 09:10:55;;;;;;;6.25;1.48;;;14.70;80.60;;;;;;5086841;28;20036;-77
2021/10/04 09:13:21;;;;;;;4.43;1.50;;;14.80;79.40;;;;;;5066805;28;20020;-80
2021/10/04 09:15:49;;;;;;;3.15;1.70;;;14.90;79.20;;;;;;5080115;28;20036;-81
2021/10/04 09:18:15;;;;;;;7.45;1.30;;;14.90;80.00;;;;;;5080153;28;20028;-80
2021/10/04 09:21:17;;;;;;;5.35;1.40;;;15.00;79.80;;;;;;5086378;28;20037;-80
2021/10/04 09:23:51;;;;;;;5.68;1.70;;;15.20;80.00;;;;;;5067492;28;20050;-77
2021/10/04 09:26:25;;;;;;;6.40;1.40;;;15.20;79.10;;;;;;5063005;28;20509;-77
2021/10/04 09:29:04;;;;;;;4.05;1.30;;;15.40;77.70;;;;;;5086083;28;20039;-77
2021/10/04 09:31:44;;;;;;;8.10;1.80;;;15.40;78.60;;;;;;5077460;28;20028;-77
2021/10/04 09:34:21;;;;;;;5.65;1.65;;;15.40;78.40;;;;;;5080203;28;20028;-77
2021/10/04 09:36:55;;;;;;;5.15;1.50;;;15.50;78.20;;;;;;5068899;28;20027;-77
2021/10/04 09:39:24;;;;;;;5.88;1.20;;;15.60;76.20;;;;;;5081163;28;20047;-80
2021/10/04 09:42:08;;;;;;;3.10;1.20;;;15.70;77.50;;;;;;5085960;28;20032;-80
2021/10/04 09:44:57;;;;;;;6.68;2.00;;;15.70;76.80;;;;;;5066577;28;20379;-81
2021/10/04 09:47:33;;;;;;;5.60;1.52;;;15.90;76.20;;;;;;5080339;28;20474;-77
2021/10/04 09:50:17;;;;;;;8.68;2.00;;;15.90;76.40;;;;;;5071182;28;20028;-80
2021/10/04 09:53:04;;;;;;;4.90;1.60;;;16.00;76.10;;;;;;5077237;28;20111;-81
2021/10/04 09:55:33;;;;;;;7.43;1.60;;;16.10;74.70;;;;;;5059306;28;20521;-81
2021/10/04 09:58:18;;;;;;;3.90;1.20;;;16.10;74.20;;;;;;5080554;28;20020;-78
2021/10/04 10:00:50;;;;;;;3.90;1.42;;;16.20;74.20;;;;;;5064644;28;20440;-78
2021/10/04 10:03:18;;;;;;;;;;;16.30;73.40;;;;;;5084571;28;20054;-77
2021/10/04 10:05:55;;;;;;;5.93;2.22;;;16.30;72.60;;;;;;5079015;28;19912;-77
2021/10/04 10:08:25;;;;;;;5.63;1.63;;;16.30;72.90;;;;;;5089976;28;20077;-77
2021/10/04 10:10:53;;;;;;;4.82;1.30;;;16.40;72.20;;;;;;5086082;28;20078;-77
2021/10/04 10:13:21;;;;;;;3.42;1.30;;;16.40;73.40;;;;;;5063060;28;20036;-81
2021/10/04 10:16:35;;;;;;;2.88;1.30;;;16.50;73.70;;;;;;5067876;28;20532;-78
2021/10/04 10:19:07;;;;;;;6.75;1.10;;;16.70;73.20;;;;;;5002768;28;20038;-78
2021/10/04 10:21:34;;;;;;;5.60;1.25;;;16.80;73.30;;;;;;4999675;28;20553;-78
2021/10/04 10:24:07;;;;;;;5.18;1.10;;;16.90;71.70;;;;;;5043953;28;20522;-78
2021/10/04 10:26:41;;;;;;;3.30;1.05;;;17.00;71.60;;;;;;5068308;28;20024;-78
2021/10/04 10:29:16;;;;;;;5.65;1.30;;;17.00;71.80;;;;;;5065998;28;20024;-78
2021/10/04 10:31:54;;;;;;;6.63;1.88;;;17.10;71.00;;;;;;5084067;28;20028;-78
2021/10/04 10:34:29;;;;;;;5.00;1.80;;;17.20;71.20;;;;;;5066564;28;20028;-78
2021/10/04 10:37:10;;;;;;;5.55;1.65;;;17.30;70.40;;;;;;5088565;28;20098;-75
2021/10/04 10:39:50;;;;;;;4.32;1.23;;;17.30;69.50;;;;;;5087059;28;20041;-76
2021/10/04 10:42:27;;;;;;;4.18;1.38;;;17.20;69.40;;;;;;5087345;28;20270;-76
2021/10/04 10:44:58;;;;;;;4.82;1.20;;;17.30;69.40;;;;;;5087096;28;20042;-76
2021/10/04 10:47:45;;;;;;;3.80;1.27;;;17.30;68.30;;;;;;5071079;28;20326;-76
2021/10/04 10:50:38;;;;;;;4.55;1.00;;;17.40;68.50;;;;;;5048937;28;20024;-76
2021/10/04 10:53:07;;;;;;;4.30;1.55;;;17.50;68.40;;;;;;5078550;28;20040;-81
2021/10/04 10:55:36;;;;;;;5.40;1.00;;;17.50;66.60;;;;;;5086246;28;20039;-80
2021/10/04 10:58:07;;;;;;;3.88;1.30;;;17.50;67.60;;;;;;5071546;28;20490;-76
2021/10/04 11:00:42;;;;;;;4.40;1.38;;;17.70;68.00;;;;;;5083007;28;20047;-80
2021/10/04 11:03:21;;;;;;;6.40;1.13;;;17.90;66.90;;;;;;5068518;28;20390;-76
2021/10/04 11:05:56;;;;;;;4.82;1.10;;;18.00;66.10;;;;;;5099378;28;20012;-76
2021/10/04 11:08:30;;;;;;;8.35;1.40;;;18.10;65.40;;;;;;5083672;28;20032;-76
2021/10/04 11:10:56;;;;;;;3.60;1.00;;;18.20;64.20;;;;;;5067070;28;20146;-76
2021/10/04 11:13:32;;;;;;;4.65;1.42;;;18.30;64.30;;;;;;5088712;28;20118;-76
2021/10/04 11:16:23;;;;;;;6.03;1.20;;;18.30;63.50;;;;;;5091201;28;20028;-75
2021/10/04 11:18:51;;;;;;;4.40;0.97;;;18.10;63.80;;;;;;5083198;28;20452;-79
2021/10/04 11:21:21;;;;;;;4.00;1.00;;;18.10;65.60;;;;;;5088382;28;20367;-77
2021/10/04 11:24:06;;;;;;;4.93;1.75;;;18.20;66.40;;;;;;5085648;28;20062;-76
2021/10/04 11:26:38;;;;;;;7.38;1.48;;;18.40;65.00;;;;;;5081094;28;20040;-75
2021/10/04 11:29:06;;;;;;;5.45;1.45;;;18.70;64.50;;;;;;5102118;28;20028;-75
2021/10/04 11:31:36;;;;;;;3.55;1.05;;;18.90;61.50;;;;;;5086546;28;20507;-76
2021/10/04 11:34:05;;;;;;;3.42;1.00;;;18.90;60.50;;;;;;5064326;28;20475;-76
2021/10/04 11:36:58;;;;;;;4.45;1.65;;;18.90;61.90;;;;;;5065791;28;20036;-75
2021/10/04 11:39:29;;;;;;;4.05;1.00;;;19.00;60.20;;;;;;5083679;28;20135;-80
2021/10/04 11:42:06;;;;;;;3.85;1.10;;;19.00;60.90;;;;;;5087325;28;20023;-76
2021/10/04 11:44:39;;;;;;;5.00;1.20;;;19.00;61.50;;;;;;5084302;28;20023;-73
2021/10/04 11:47:07;;;;;;;5.38;1.10;;;19.00;60.40;;;;;;5088390;28;20028;-74
2021/10/04 11:49:36;;;;;;;4.50;1.20;;;18.90;61.30;;;;;;5069393;28;20039;-73
2021/10/04 11:52:06;;;;;;;6.60;1.23;;;18.80;61.50;;;;;;5086069;28;20379;-75
2021/10/04 11:54:43;;;;;;;3.45;1.00;;;18.90;60.50;;;;;;5085636;28;20043;-75
2021/10/04 11:57:14;;;;;;;5.32;1.55;;;19.00;62.00;;;;;;5063465;28;20067;-74
2021/10/04 11:59:54;;;;;;;8.48;1.88;;;19.20;59.10;;;;;;5079685;28;20040;-74
2021/10/04 12:02:32;;;;;;;4.28;1.20;;;19.30;58.10;;;;;;5086948;28;20731;-74
2021/10/04 12:05:15;;;;;;;5.05;1.30;;;19.40;58.40;;;;;;5071309;28;20465;-74
2021/10/04 12:08:14;;;;;;;5.65;1.63;;;19.40;57.40;;;;;;5085693;28;20491;-74
2021/10/04 12:10:44;;;;;;;5.25;1.42;;;19.40;56.40;;;;;;5054720;28;20044;-74
2021/10/04 12:13:21;;;;;;;4.72;1.17;;;19.40;56.80;;;;;;5084643;28;20467;-74
2021/10/04 12:15:50;;;;;;;7.05;1.70;;;19.30;54.80;;;;;;5067898;28;20405;-74
2021/10/04 12:18:20;;;;;;;5.90;1.42;;;19.30;55.60;;;;;;5067662;28;20020;-74
2021/10/04 12:20:48;;;;;;;3.08;1.10;;;19.20;57.10;;;;;;5083856;28;20379;-75
2021/10/04 12:23:24;;;;;;;5.25;1.33;;;19.20;59.00;;;;;;5083619;28;20572;-74
2021/10/04 12:25:52;;;;;;;4.05;1.60;;;19.30;57.10;;;;;;5070150;28;20020;-74
2021/10/04 12:28:20;;;;;;;5.00;1.40;;;19.30;56.90;;;;;;5088684;28;20034;-75
2021/10/04 12:30:55;;;;;;;6.68;1.40;;;19.30;56.80;;;;;;5073074;28;20073;-75
2021/10/04 12:33:47;;;;;;;4.10;1.40;;;19.20;57.60;;;;;;5083051;28;20028;-75
2021/10/04 12:36:13;;;;;;;4.97;1.65;;;19.20;58.40;;;;;;5068410;28;20032;-75
2021/10/04 12:38:58;;;;;;;6.68;1.13;;;19.30;58.10;;;;;;5069769;28;20176;-74
2021/10/04 12:41:50;;;;;;;5.85;1.30;;;19.40;58.90;;;;;;5074050;28;20123;-74
2021/10/04 12:44:18;;;;;;;4.43;1.23;;;19.50;57.30;;;;;;5056664;28;20085;-75
2021/10/04 12:47:02;;;;;;;2.83;1.13;;;19.50;58.00;;;;;;5067403;28;20382;-74
2021/10/04 12:49:31;;;;;;;2.95;1.10;;;19.60;58.70;;;;;;5087427;28;20056;-75
2021/10/04 12:52:00;;;;;;;4.63;1.25;;;19.70;56.10;;;;;;5086772;28;20036;-74
2021/10/04 12:54:35;;;;;;;3.97;0.93;;;19.70;56.00;;;;;;5068907;28;20030;-74
2021/10/04 12:57:01;;;;;;;3.35;1.13;;;19.70;56.90;;;;;;5093067;28;20027;-75